sensor_id;sensor_type;location;lat;lon;timestamp;pressure;altitude;pressure_sealevel;temperature
69552;BMP280;58993;45.320;11.864;2022-08-04T00:00:10;101868.09;;;30.07
69552;BMP280;58993;45.320;11.864;2022-08-04T00:02:57;101870.84;;;30.08
69552;BMP280;58993;45.320;11.864;2022-08-04T00:11:07;101867.23;;;30.12
69552;BMP280;58993;45.320;11.864;2022-08-04T00:13:37;101870.69;;;30.13
69552;BMP280;58993;45.320;11.864;2022-08-04T00:16:08;101870.10;;;30.12
69552;BMP280;58993;45.320;11.864;2022-08-04T00:18:42;101871.45;;;30.10
69552;BMP280;58993;45.320;11.864;2022-08-04T00:21:12;101871.60;;;30.11
69552;BMP280;58993;45.320;11.864;2022-08-04T00:23:42;101870.80;;;30.06
69552;BMP280;58993;45.320;11.864;2022-08-04T00:26:08;101873.98;;;30.09
69552;BMP280;58993;45.320;11.864;2022-08-04T00:28:35;101870.17;;;30.07
69552;BMP280;58993;45.320;11.864;2022-08-04T00:31:03;101872.38;;;30.05
69552;BMP280;58993;45.320;11.864;2022-08-04T00:33:30;101868.30;;;30.06
69552;BMP280;58993;45.320;11.864;2022-08-04T00:35:56;101869.11;;;30.08
69552;BMP280;58993;45.320;11.864;2022-08-04T00:38:24;101865.94;;;30.07
69552;BMP280;58993;45.320;11.864;2022-08-04T00:43:31;101867.56;;;30.06
69552;BMP280;58993;45.320;11.864;2022-08-04T01:00:11;101857.92;;;30.01
69552;BMP280;58993;45.320;11.864;2022-08-04T01:10:46;101871.73;;;29.97
69552;BMP280;58993;45.320;11.864;2022-08-04T01:16:01;101865.54;;;29.93
69552;BMP280;58993;45.320;11.864;2022-08-04T01:29:54;101868.48;;;29.88
69552;BMP280;58993;45.320;11.864;2022-08-04T01:32:26;101866.05;;;29.88
69552;BMP280;58993;45.320;11.864;2022-08-04T01:37:56;101860.57;;;29.84
69552;BMP280;58993;45.320;11.864;2022-08-04T01:40:26;101860.95;;;29.84
69552;BMP280;58993;45.320;11.864;2022-08-04T01:42:52;101859.06;;;29.85
69552;BMP280;58993;45.320;11.864;2022-08-04T01:45:18;101860.04;;;29.84
69552;BMP280;58993;45.320;11.864;2022-08-04T01:47:52;101863.02;;;29.84
69552;BMP280;58993;45.320;11.864;2022-08-04T01:50:18;101862.67;;;29.83
69552;BMP280;58993;45.320;11.864;2022-08-04T01:52:45;101863.66;;;29.85
69552;BMP280;58993;45.320;11.864;2022-08-04T01:55:13;101861.70;;;29.86
69552;BMP280;58993;45.320;11.864;2022-08-04T01:57:44;101861.23;;;29.84
69552;BMP280;58993;45.320;11.864;2022-08-04T02:00:22;101854.85;;;29.80
69552;BMP280;58993;45.320;11.864;2022-08-04T02:02:51;101855.30;;;29.82
69552;BMP280;58993;45.320;11.864;2022-08-04T02:05:19;101855.95;;;29.80
69552;BMP280;58993;45.320;11.864;2022-08-04T02:10:42;101855.35;;;29.79
69552;BMP280;58993;45.320;11.864;2022-08-04T02:13:35;101853.03;;;29.79
69552;BMP280;58993;45.320;11.864;2022-08-04T02:16:15;101857.22;;;29.81
69552;BMP280;58993;45.320;11.864;2022-08-04T02:19:03;101858.09;;;29.80
69552;BMP280;58993;45.320;11.864;2022-08-04T02:21:31;101858.31;;;29.82
69552;BMP280;58993;45.320;11.864;2022-08-04T02:24:06;101857.56;;;29.84
69552;BMP280;58993;45.320;11.864;2022-08-04T02:26:34;101857.00;;;29.82
69552;BMP280;58993;45.320;11.864;2022-08-04T02:29:19;101856.38;;;29.81
69552;BMP280;58993;45.320;11.864;2022-08-04T02:36:51;101853.30;;;29.81
69552;BMP280;58993;45.320;11.864;2022-08-04T02:39:21;101855.77;;;29.81
69552;BMP280;58993;45.320;11.864;2022-08-04T02:41:48;101853.56;;;29.76
69552;BMP280;58993;45.320;11.864;2022-08-04T02:44:19;101855.81;;;29.75
69552;BMP280;58993;45.320;11.864;2022-08-04T02:46:47;101856.05;;;29.72
69552;BMP280;58993;45.320;11.864;2022-08-04T02:49:16;101859.79;;;29.75
69552;BMP280;58993;45.320;11.864;2022-08-04T02:51:45;101860.49;;;29.76
69552;BMP280;58993;45.320;11.864;2022-08-04T02:54:14;101857.48;;;29.73
69552;BMP280;58993;45.320;11.864;2022-08-04T02:56:44;101857.12;;;29.72
69552;BMP280;58993;45.320;11.864;2022-08-04T02:59:11;101855.63;;;29.71
69552;BMP280;58993;45.320;11.864;2022-08-04T03:01:38;101857.96;;;29.71
69552;BMP280;58993;45.320;11.864;2022-08-04T03:04:11;101856.63;;;29.71
69552;BMP280;58993;45.320;11.864;2022-08-04T03:52:26;101839.39;;;29.61
69552;BMP280;58993;45.320;11.864;2022-08-04T04:09:39;101840.42;;;29.54
69552;BMP280;58993;45.320;11.864;2022-08-04T04:15:18;101840.57;;;29.51
69552;BMP280;58993;45.320;11.864;2022-08-04T04:20:31;101838.81;;;29.48
69552;BMP280;58993;45.320;11.864;2022-08-04T04:23:06;101839.77;;;29.46
69552;BMP280;58993;45.320;11.864;2022-08-04T04:25:54;101840.63;;;29.42
69552;BMP280;58993;45.320;11.864;2022-08-04T04:28:47;101842.56;;;29.44
69552;BMP280;58993;45.320;11.864;2022-08-04T04:42:47;101842.96;;;29.53
69552;BMP280;58993;45.320;11.864;2022-08-04T04:48:44;101847.96;;;29.52
69552;BMP280;58993;45.320;11.864;2022-08-04T04:57:10;101851.50;;;29.58
69552;BMP280;58993;45.320;11.864;2022-08-04T04:59:44;101854.05;;;29.57
69552;BMP280;58993;45.320;11.864;2022-08-04T05:02:42;101853.02;;;29.59
69552;BMP280;58993;45.320;11.864;2022-08-04T05:14:31;101852.67;;;29.64
69552;BMP280;58993;45.320;11.864;2022-08-04T05:17:13;101851.35;;;29.61
69552;BMP280;58993;45.320;11.864;2022-08-04T05:22:21;101852.63;;;29.67
69552;BMP280;58993;45.320;11.864;2022-08-04T05:24:54;101853.23;;;29.67
69552;BMP280;58993;45.320;11.864;2022-08-04T05:27:30;101851.11;;;29.68
69552;BMP280;58993;45.320;11.864;2022-08-04T05:30:02;101849.19;;;29.69
69552;BMP280;58993;45.320;11.864;2022-08-04T05:32:34;101848.29;;;29.71
69552;BMP280;58993;45.320;11.864;2022-08-04T05:35:08;101849.92;;;29.73
69552;BMP280;58993;45.320;11.864;2022-08-04T05:37:37;101849.70;;;29.72
69552;BMP280;58993;45.320;11.864;2022-08-04T05:40:06;101856.23;;;29.77
69552;BMP280;58993;45.320;11.864;2022-08-04T05:42:37;101856.04;;;29.76
69552;BMP280;58993;45.320;11.864;2022-08-04T05:45:06;101852.36;;;29.74
69552;BMP280;58993;45.320;11.864;2022-08-04T05:47:33;101854.83;;;29.75
69552;BMP280;58993;45.320;11.864;2022-08-04T05:50:00;101858.58;;;29.77
69552;BMP280;58993;45.320;11.864;2022-08-04T05:52:27;101857.71;;;29.79
69552;BMP280;58993;45.320;11.864;2022-08-04T05:54:54;101858.58;;;29.77
69552;BMP280;58993;45.320;11.864;2022-08-04T05:57:20;101859.92;;;29.78
69552;BMP280;58993;45.320;11.864;2022-08-04T05:59:48;101860.45;;;29.79
69552;BMP280;58993;45.320;11.864;2022-08-04T06:02:16;101860.54;;;29.80
69552;BMP280;58993;45.320;11.864;2022-08-04T06:04:46;101858.05;;;29.82
69552;BMP280;58993;45.320;11.864;2022-08-04T06:07:12;101860.21;;;29.84
69552;BMP280;58993;45.320;11.864;2022-08-04T06:09:39;101855.61;;;29.87
69552;BMP280;58993;45.320;11.864;2022-08-04T06:12:13;101852.13;;;29.87
69552;BMP280;58993;45.320;11.864;2022-08-04T06:14:45;101854.55;;;29.87
69552;BMP280;58993;45.320;11.864;2022-08-04T06:17:23;101855.41;;;29.86
69552;BMP280;58993;45.320;11.864;2022-08-04T06:19:49;101858.59;;;29.90
69552;BMP280;58993;45.320;11.864;2022-08-04T06:22:17;101860.03;;;29.88
69552;BMP280;58993;45.320;11.864;2022-08-04T06:24:45;101863.87;;;29.88
69552;BMP280;58993;45.320;11.864;2022-08-04T06:27:14;101864.19;;;29.87
69552;BMP280;58993;45.320;11.864;2022-08-04T06:29:41;101865.23;;;29.88
69552;BMP280;58993;45.320;11.864;2022-08-04T06:32:08;101861.80;;;29.88
69552;BMP280;58993;45.320;11.864;2022-08-04T06:34:59;101863.75;;;29.88
69552;BMP280;58993;45.320;11.864;2022-08-04T06:37:29;101866.36;;;29.89
69552;BMP280;58993;45.320;11.864;2022-08-04T06:39:56;101865.23;;;29.88
69552;BMP280;58993;45.320;11.864;2022-08-04T06:42:24;101867.82;;;29.89
69552;BMP280;58993;45.320;11.864;2022-08-04T06:44:54;101868.70;;;29.89
69552;BMP280;58993;45.320;11.864;2022-08-04T06:47:21;101868.79;;;29.90
69552;BMP280;58993;45.320;11.864;2022-08-04T06:49:50;101866.63;;;29.90
69552;BMP280;58993;45.320;11.864;2022-08-04T06:52:17;101864.26;;;29.90
69552;BMP280;58993;45.320;11.864;2022-08-04T06:54:48;101864.20;;;29.91
69552;BMP280;58993;45.320;11.864;2022-08-04T06:57:18;101866.79;;;29.95
69552;BMP280;58993;45.320;11.864;2022-08-04T06:59:48;101866.40;;;29.95
69552;BMP280;58993;45.320;11.864;2022-08-04T07:02:19;101867.69;;;29.97
69552;BMP280;58993;45.320;11.864;2022-08-04T07:04:47;101865.58;;;29.99
69552;BMP280;58993;45.320;11.864;2022-08-04T07:07:13;101867.75;;;30.01
69552;BMP280;58993;45.320;11.864;2022-08-04T07:09:40;101866.84;;;29.99
69552;BMP280;58993;45.320;11.864;2022-08-04T07:12:06;101868.55;;;30.02
69552;BMP280;58993;45.320;11.864;2022-08-04T07:14:32;101869.48;;;29.96
69552;BMP280;58993;45.320;11.864;2022-08-04T07:17:04;101870.97;;;29.93
69552;BMP280;58993;45.320;11.864;2022-08-04T07:19:39;101869.58;;;29.95
69552;BMP280;58993;45.320;11.864;2022-08-04T07:22:06;101869.31;;;29.97
69552;BMP280;58993;45.320;11.864;2022-08-04T07:24:35;101866.30;;;29.97
69552;BMP280;58993;45.320;11.864;2022-08-04T07:27:03;101866.23;;;29.96
69552;BMP280;58993;45.320;11.864;2022-08-04T07:29:29;101863.58;;;29.97
69552;BMP280;58993;45.320;11.864;2022-08-04T07:31:56;101860.83;;;29.99
69552;BMP280;58993;45.320;11.864;2022-08-04T07:34:23;101861.42;;;30.00
69552;BMP280;58993;45.320;11.864;2022-08-04T07:36:50;101860.61;;;30.01
69552;BMP280;58993;45.320;11.864;2022-08-04T07:39:16;101860.98;;;30.02
69552;BMP280;58993;45.320;11.864;2022-08-04T07:41:42;101861.04;;;30.05
69552;BMP280;58993;45.320;11.864;2022-08-04T07:44:08;101862.86;;;30.05
69552;BMP280;58993;45.320;11.864;2022-08-04T07:46:36;101864.34;;;30.06
69552;BMP280;58993;45.320;11.864;2022-08-04T07:49:02;101862.89;;;30.06
69552;BMP280;58993;45.320;11.864;2022-08-04T07:51:29;101863.96;;;30.07
69552;BMP280;58993;45.320;11.864;2022-08-04T07:53:56;101860.77;;;30.06
69552;BMP280;58993;45.320;11.864;2022-08-04T07:56:23;101861.29;;;30.09
69552;BMP280;58993;45.320;11.864;2022-08-04T07:58:49;101859.98;;;30.08
69552;BMP280;58993;45.320;11.864;2022-08-04T08:01:15;101861.57;;;30.09
69552;BMP280;58993;45.320;11.864;2022-08-04T08:03:41;101858.84;;;30.06
69552;BMP280;58993;45.320;11.864;2022-08-04T08:06:07;101857.48;;;30.04
69552;BMP280;58993;45.320;11.864;2022-08-04T08:08:37;101856.40;;;30.02
69552;BMP280;58993;45.320;11.864;2022-08-04T08:11:02;101853.62;;;29.99
69552;BMP280;58993;45.320;11.864;2022-08-04T08:13:28;101853.02;;;29.98
69552;BMP280;58993;45.320;11.864;2022-08-04T08:15:54;101851.15;;;29.96
69552;BMP280;58993;45.320;11.864;2022-08-04T08:18:19;101850.09;;;29.96
69552;BMP280;58993;45.320;11.864;2022-08-04T08:20:45;101850.14;;;29.97
69552;BMP280;58993;45.320;11.864;2022-08-04T08:23:11;101847.90;;;29.96
69552;BMP280;58993;45.320;11.864;2022-08-04T08:25:36;101847.95;;;29.96
69552;BMP280;58993;45.320;11.864;2022-08-04T08:28:03;101848.63;;;29.96
69552;BMP280;58993;45.320;11.864;2022-08-04T08:30:31;101848.43;;;29.97
69552;BMP280;58993;45.320;11.864;2022-08-04T08:32:57;101849.23;;;29.98
69552;BMP280;58993;45.320;11.864;2022-08-04T08:35:24;101850.34;;;29.98
69552;BMP280;58993;45.320;11.864;2022-08-04T08:37:56;101850.97;;;30.01
69552;BMP280;58993;45.320;11.864;2022-08-04T08:49:04;101846.56;;;30.03
69552;BMP280;58993;45.320;11.864;2022-08-04T09:05:46;101839.65;;;30.12
69552;BMP280;58993;45.320;11.864;2022-08-04T09:11:07;101841.31;;;30.15
69552;BMP280;58993;45.320;11.864;2022-08-04T09:13:38;101841.39;;;30.16
69552;BMP280;58993;45.320;11.864;2022-08-04T09:16:34;101844.91;;;30.16
69552;BMP280;58993;45.320;11.864;2022-08-04T09:22:01;101844.68;;;30.16
69552;BMP280;58993;45.320;11.864;2022-08-04T09:24:47;101847.48;;;30.18
69552;BMP280;58993;45.320;11.864;2022-08-04T09:27:17;101845.81;;;30.21
69552;BMP280;58993;45.320;11.864;2022-08-04T09:29:52;101844.69;;;30.20
69552;BMP280;58993;45.320;11.864;2022-08-04T09:32:48;101846.83;;;30.22
69552;BMP280;58993;45.320;11.864;2022-08-04T09:38:12;101846.34;;;30.21
69552;BMP280;58993;45.320;11.864;2022-08-04T09:48:32;101839.02;;;30.36
69552;BMP280;58993;45.320;11.864;2022-08-04T09:51:01;101833.69;;;30.49
69552;BMP280;58993;45.320;11.864;2022-08-04T09:59:19;101828.86;;;30.43
69552;BMP280;58993;45.320;11.864;2022-08-04T10:01:50;101825.28;;;30.40
69552;BMP280;58993;45.320;11.864;2022-08-04T10:04:18;101822.88;;;30.39
69552;BMP280;58993;45.320;11.864;2022-08-04T10:07:18;101822.55;;;30.41
69552;BMP280;58993;45.320;11.864;2022-08-04T10:10:16;101821.73;;;30.46
69552;BMP280;58993;45.320;11.864;2022-08-04T10:15:42;101814.17;;;30.44
69552;BMP280;58993;45.320;11.864;2022-08-04T10:18:44;101813.09;;;30.47
69552;BMP280;58993;45.320;11.864;2022-08-04T10:21:17;101808.55;;;30.50
69552;BMP280;58993;45.320;11.864;2022-08-04T10:27:10;101800.96;;;30.62
69552;BMP280;58993;45.320;11.864;2022-08-04T10:29:42;101798.14;;;30.57
69552;BMP280;58993;45.320;11.864;2022-08-04T10:32:16;101800.08;;;30.56
69552;BMP280;58993;45.320;11.864;2022-08-04T10:34:53;101798.27;;;30.53
69552;BMP280;58993;45.320;11.864;2022-08-04T10:37:28;101796.90;;;30.56
69552;BMP280;58993;45.320;11.864;2022-08-04T10:40:00;101793.02;;;30.56
69552;BMP280;58993;45.320;11.864;2022-08-04T10:42:59;101794.74;;;30.52
69552;BMP280;58993;45.320;11.864;2022-08-04T10:45:37;101791.09;;;30.53
69552;BMP280;58993;45.320;11.864;2022-08-04T10:48:17;101792.58;;;30.57
69552;BMP280;58993;45.320;11.864;2022-08-04T10:51:03;101785.58;;;30.60
69552;BMP280;58993;45.320;11.864;2022-08-04T10:53:30;101787.43;;;30.57
69552;BMP280;58993;45.320;11.864;2022-08-04T10:56:08;101786.98;;;30.57
69552;BMP280;58993;45.320;11.864;2022-08-04T10:58:44;101782.21;;;30.54
69552;BMP280;58993;45.320;11.864;2022-08-04T11:01:16;101782.66;;;30.62
69552;BMP280;58993;45.320;11.864;2022-08-04T11:03:51;101784.52;;;30.59
69552;BMP280;58993;45.320;11.864;2022-08-04T11:06:23;101781.54;;;30.66
69552;BMP280;58993;45.320;11.864;2022-08-04T11:08:51;101776.88;;;30.74
69552;BMP280;58993;45.320;11.864;2022-08-04T11:11:30;101778.16;;;30.71
69552;BMP280;58993;45.320;11.864;2022-08-04T11:14:12;101770.67;;;30.68
69552;BMP280;58993;45.320;11.864;2022-08-04T11:19:30;101763.23;;;30.62
69552;BMP280;58993;45.320;11.864;2022-08-04T11:22:14;101763.90;;;30.66
69552;BMP280;58993;45.320;11.864;2022-08-04T11:27:14;101763.16;;;30.80
69552;BMP280;58993;45.320;11.864;2022-08-04T11:29:52;101762.28;;;30.76
69552;BMP280;58993;45.320;11.864;2022-08-04T11:32:27;101758.89;;;30.74
69552;BMP280;58993;45.320;11.864;2022-08-04T11:34:59;101754.45;;;30.74
69552;BMP280;58993;45.320;11.864;2022-08-04T11:37:49;101749.92;;;30.70
69552;BMP280;58993;45.320;11.864;2022-08-04T11:40:23;101755.17;;;30.78
69552;BMP280;58993;45.320;11.864;2022-08-04T11:42:56;101752.95;;;30.89
69552;BMP280;58993;45.320;11.864;2022-08-04T11:45:33;101756.41;;;30.88
69552;BMP280;58993;45.320;11.864;2022-08-04T11:48:16;101751.14;;;30.84
69552;BMP280;58993;45.320;11.864;2022-08-04T11:50:54;101745.34;;;30.83
69552;BMP280;58993;45.320;11.864;2022-08-04T11:53:24;101746.08;;;30.84
69552;BMP280;58993;45.320;11.864;2022-08-04T11:55:52;101745.72;;;30.86
69552;BMP280;58993;45.320;11.864;2022-08-04T11:58:20;101748.09;;;30.91
69552;BMP280;58993;45.320;11.864;2022-08-04T12:01:27;101747.77;;;31.12
69552;BMP280;58993;45.320;11.864;2022-08-04T12:09:29;101746.34;;;31.29
69552;BMP280;58993;45.320;11.864;2022-08-04T12:17:28;101743.52;;;31.46
69552;BMP280;58993;45.320;11.864;2022-08-04T12:19:57;101740.41;;;31.43
69552;BMP280;58993;45.320;11.864;2022-08-04T12:22:27;101738.27;;;31.58
69552;BMP280;58993;45.320;11.864;2022-08-04T12:25:00;101740.33;;;31.69
69552;BMP280;58993;45.320;11.864;2022-08-04T12:27:31;101739.99;;;31.68
69552;BMP280;58993;45.320;11.864;2022-08-04T12:29:57;101741.98;;;31.71
69552;BMP280;58993;45.320;11.864;2022-08-04T12:32:47;101738.09;;;31.74
69552;BMP280;58993;45.320;11.864;2022-08-04T12:35:31;101737.80;;;31.75
69552;BMP280;58993;45.320;11.864;2022-08-04T12:38:14;101735.10;;;31.78
69552;BMP280;58993;45.320;11.864;2022-08-04T12:40:50;101734.19;;;31.78
69552;BMP280;58993;45.320;11.864;2022-08-04T12:43:30;101736.13;;;31.73
69552;BMP280;58993;45.320;11.864;2022-08-04T12:46:02;101732.29;;;31.67
69552;BMP280;58993;45.320;11.864;2022-08-04T12:48:29;101731.16;;;31.63
69552;BMP280;58993;45.320;11.864;2022-08-04T12:50:58;101732.90;;;31.66
69552;BMP280;58993;45.320;11.864;2022-08-04T12:53:36;101728.13;;;31.61
69552;BMP280;58993;45.320;11.864;2022-08-04T12:56:04;101728.95;;;31.54
69552;BMP280;58993;45.320;11.864;2022-08-04T12:58:45;101728.55;;;31.53
69552;BMP280;58993;45.320;11.864;2022-08-04T13:01:11;101726.02;;;31.54
69552;BMP280;58993;45.320;11.864;2022-08-04T13:03:43;101726.14;;;31.50
69552;BMP280;58993;45.320;11.864;2022-08-04T13:06:11;101726.62;;;31.49
69552;BMP280;58993;45.320;11.864;2022-08-04T13:08:40;101722.95;;;31.40
69552;BMP280;58993;45.320;11.864;2022-08-04T13:11:07;101718.27;;;31.39
69552;BMP280;58993;45.320;11.864;2022-08-04T13:13:36;101716.44;;;31.37
69552;BMP280;58993;45.320;11.864;2022-08-04T13:16:04;101712.34;;;31.35
69552;BMP280;58993;45.320;11.864;2022-08-04T13:18:33;101712.19;;;31.31
69552;BMP280;58993;45.320;11.864;2022-08-04T13:21:16;101708.30;;;31.32
69552;BMP280;58993;45.320;11.864;2022-08-04T13:23:44;101706.86;;;31.30
69552;BMP280;58993;45.320;11.864;2022-08-04T13:26:14;101704.72;;;31.31
69552;BMP280;58993;45.320;11.864;2022-08-04T13:28:42;101699.27;;;31.32
69552;BMP280;58993;45.320;11.864;2022-08-04T13:31:13;101695.55;;;31.36
69552;BMP280;58993;45.320;11.864;2022-08-04T13:33:41;101688.15;;;31.60
69552;BMP280;58993;45.320;11.864;2022-08-04T13:36:08;101687.53;;;31.72
69552;BMP280;58993;45.320;11.864;2022-08-04T13:38:47;101680.67;;;31.75
69552;BMP280;58993;45.320;11.864;2022-08-04T13:41:15;101678.72;;;31.88
69552;BMP280;58993;45.320;11.864;2022-08-04T13:43:54;101673.88;;;31.91
69552;BMP280;58993;45.320;11.864;2022-08-04T13:46:23;101669.09;;;32.05
69552;BMP280;58993;45.320;11.864;2022-08-04T13:48:50;101666.58;;;32.19
69552;BMP280;58993;45.320;11.864;2022-08-04T13:51:18;101666.51;;;32.35
69552;BMP280;58993;45.320;11.864;2022-08-04T13:53:45;101661.13;;;32.33
69552;BMP280;58993;45.320;11.864;2022-08-04T13:56:20;101658.86;;;32.18
69552;BMP280;58993;45.320;11.864;2022-08-04T13:58:48;101654.05;;;32.03
69552;BMP280;58993;45.320;11.864;2022-08-04T14:01:34;101656.39;;;31.95
69552;BMP280;58993;45.320;11.864;2022-08-04T14:04:22;101654.44;;;31.82
69552;BMP280;58993;45.320;11.864;2022-08-04T14:09:55;101655.75;;;31.67
69552;BMP280;58993;45.320;11.864;2022-08-04T14:12:21;101656.35;;;31.61
69552;BMP280;58993;45.320;11.864;2022-08-04T14:14:50;101653.86;;;31.59
69552;BMP280;58993;45.320;11.864;2022-08-04T14:17:18;101650.57;;;31.54
69552;BMP280;58993;45.320;11.864;2022-08-04T14:30:39;101643.75;;;31.45
69552;BMP280;58993;45.320;11.864;2022-08-04T14:33:09;101642.63;;;31.43
69552;BMP280;58993;45.320;11.864;2022-08-04T14:35:35;101636.30;;;31.41
69552;BMP280;58993;45.320;11.864;2022-08-04T14:38:07;101635.35;;;31.40
69552;BMP280;58993;45.320;11.864;2022-08-04T14:40:38;101634.30;;;31.42
69552;BMP280;58993;45.320;11.864;2022-08-04T14:43:05;101630.98;;;31.41
69552;BMP280;58993;45.320;11.864;2022-08-04T14:45:33;101630.53;;;31.41
69552;BMP280;58993;45.320;11.864;2022-08-04T14:47:59;101629.96;;;31.39
69552;BMP280;58993;45.320;11.864;2022-08-04T14:50:44;101628.69;;;31.40
69552;BMP280;58993;45.320;11.864;2022-08-04T14:55:38;101626.95;;;31.38
69552;BMP280;58993;45.320;11.864;2022-08-04T14:58:05;101626.64;;;31.36
69552;BMP280;58993;45.320;11.864;2022-08-04T15:00:33;101628.08;;;31.37
69552;BMP280;58993;45.320;11.864;2022-08-04T15:03:03;101625.37;;;31.41
69552;BMP280;58993;45.320;11.864;2022-08-04T15:05:30;101625.43;;;31.40
69552;BMP280;58993;45.320;11.864;2022-08-04T15:07:56;101624.49;;;31.42
69552;BMP280;58993;45.320;11.864;2022-08-04T15:10:22;101624.80;;;31.43
69552;BMP280;58993;45.320;11.864;2022-08-04T15:12:47;101626.59;;;31.44
69552;BMP280;58993;45.320;11.864;2022-08-04T15:15:14;101622.27;;;31.43
69552;BMP280;58993;45.320;11.864;2022-08-04T15:17:39;101620.57;;;31.43
69552;BMP280;58993;45.320;11.864;2022-08-04T15:20:06;101615.05;;;31.45
69552;BMP280;58993;45.320;11.864;2022-08-04T15:22:32;101613.55;;;31.47
69552;BMP280;58993;45.320;11.864;2022-08-04T15:24:58;101614.10;;;31.46
69552;BMP280;58993;45.320;11.864;2022-08-04T15:27:27;101613.01;;;31.48
69552;BMP280;58993;45.320;11.864;2022-08-04T15:29:58;101611.85;;;31.47
69552;BMP280;58993;45.320;11.864;2022-08-04T15:32:25;101605.95;;;31.50
69552;BMP280;58993;45.320;11.864;2022-08-04T15:34:51;101605.83;;;31.49
69552;BMP280;58993;45.320;11.864;2022-08-04T15:45:54;101602.23;;;31.49
69552;BMP280;58993;45.320;11.864;2022-08-04T15:51:11;101598.96;;;31.47
69552;BMP280;58993;45.320;11.864;2022-08-04T15:58:50;101593.26;;;31.53
69552;BMP280;58993;45.320;11.864;2022-08-04T16:01:16;101590.61;;;31.55
69552;BMP280;58993;45.320;11.864;2022-08-04T16:03:43;101588.57;;;31.57
69552;BMP280;58993;45.320;11.864;2022-08-04T16:16:44;101582.70;;;31.65
69552;BMP280;58993;45.320;11.864;2022-08-04T16:19:45;101583.42;;;31.71
69552;BMP280;58993;45.320;11.864;2022-08-04T16:22:34;101582.33;;;31.75
69552;BMP280;58993;45.320;11.864;2022-08-04T16:25:00;101580.05;;;31.77
69552;BMP280;58993;45.320;11.864;2022-08-04T16:27:42;101580.98;;;31.79
69552;BMP280;58993;45.320;11.864;2022-08-04T16:30:11;101581.43;;;31.83
69552;BMP280;58993;45.320;11.864;2022-08-04T16:32:45;101580.02;;;31.84
69552;BMP280;58993;45.320;11.864;2022-08-04T16:35:25;101580.66;;;31.87
69552;BMP280;58993;45.320;11.864;2022-08-04T16:38:11;101577.35;;;31.89
69552;BMP280;58993;45.320;11.864;2022-08-04T16:40:38;101579.67;;;31.91
69552;BMP280;58993;45.320;11.864;2022-08-04T16:43:12;101581.45;;;32.00
69552;BMP280;58993;45.320;11.864;2022-08-04T16:45:40;101581.20;;;32.03
69552;BMP280;58993;45.320;11.864;2022-08-04T16:48:07;101582.49;;;32.05
69552;BMP280;58993;45.320;11.864;2022-08-04T16:50:33;101583.49;;;32.09
69552;BMP280;58993;45.320;11.864;2022-08-04T16:53:09;101584.77;;;32.15
69552;BMP280;58993;45.320;11.864;2022-08-04T16:55:45;101585.08;;;32.19
69552;BMP280;58993;45.320;11.864;2022-08-04T16:58:11;101585.39;;;32.22
69552;BMP280;58993;45.320;11.864;2022-08-04T17:00:37;101586.02;;;32.25
69552;BMP280;58993;45.320;11.864;2022-08-04T17:03:04;101588.52;;;32.31
69552;BMP280;58993;45.320;11.864;2022-08-04T17:05:30;101589.50;;;32.31
69552;BMP280;58993;45.320;11.864;2022-08-04T17:07:58;101590.20;;;32.32
69552;BMP280;58993;45.320;11.864;2022-08-04T17:10:37;101590.70;;;32.35
69552;BMP280;58993;45.320;11.864;2022-08-04T17:15:51;101592.71;;;32.34
69552;BMP280;58993;45.320;11.864;2022-08-04T17:18:20;101592.85;;;32.33
69552;BMP280;58993;45.320;11.864;2022-08-04T17:20:46;101598.43;;;32.22
69552;BMP280;58993;45.320;11.864;2022-08-04T17:23:39;101596.26;;;32.15
69552;BMP280;58993;45.320;11.864;2022-08-04T17:26:25;101596.66;;;32.01
69552;BMP280;58993;45.320;11.864;2022-08-04T17:28:53;101599.43;;;31.90
69552;BMP280;58993;45.320;11.864;2022-08-04T17:31:21;101599.61;;;31.86
69552;BMP280;58993;45.320;11.864;2022-08-04T17:33:51;101598.34;;;31.83
69552;BMP280;58993;45.320;11.864;2022-08-04T17:36:24;101602.17;;;31.78
69552;BMP280;58993;45.320;11.864;2022-08-04T17:38:54;101604.09;;;31.74
69552;BMP280;58993;45.320;11.864;2022-08-04T17:41:25;101603.61;;;31.71
69552;BMP280;58993;45.320;11.864;2022-08-04T17:43:54;101601.10;;;31.68
69552;BMP280;58993;45.320;11.864;2022-08-04T17:46:44;101596.48;;;31.66
69552;BMP280;58993;45.320;11.864;2022-08-04T17:51:50;101601.12;;;31.62
69552;BMP280;58993;45.320;11.864;2022-08-04T17:54:20;101605.95;;;31.62
69552;BMP280;58993;45.320;11.864;2022-08-04T17:56:55;101607.58;;;31.58
69552;BMP280;58993;45.320;11.864;2022-08-04T17:59:41;101606.55;;;31.57
69552;BMP280;58993;45.320;11.864;2022-08-04T18:02:07;101606.38;;;31.56
69552;BMP280;58993;45.320;11.864;2022-08-04T18:04:45;101608.71;;;31.55
69552;BMP280;58993;45.320;11.864;2022-08-04T18:12:28;101615.02;;;31.50
69552;BMP280;58993;45.320;11.864;2022-08-04T18:15:19;101613.11;;;31.49
69552;BMP280;58993;45.320;11.864;2022-08-04T18:17:46;101612.13;;;31.48
69552;BMP280;58993;45.320;11.864;2022-08-04T18:20:15;101615.05;;;31.47
69552;BMP280;58993;45.320;11.864;2022-08-04T18:22:45;101612.48;;;31.45
69552;BMP280;58993;45.320;11.864;2022-08-04T18:25:16;101614.79;;;31.43
69552;BMP280;58993;45.320;11.864;2022-08-04T18:30:11;101614.52;;;31.42
69552;BMP280;58993;45.320;11.864;2022-08-04T18:32:37;101614.70;;;31.40
69552;BMP280;58993;45.320;11.864;2022-08-04T18:35:02;101618.27;;;31.40
69552;BMP280;58993;45.320;11.864;2022-08-04T18:37:28;101618.66;;;31.38
69552;BMP280;58993;45.320;11.864;2022-08-04T18:39:54;101620.95;;;31.38
69552;BMP280;58993;45.320;11.864;2022-08-04T18:42:20;101621.31;;;31.39
69552;BMP280;58993;45.320;11.864;2022-08-04T18:44:45;101625.45;;;31.36
69552;BMP280;58993;45.320;11.864;2022-08-04T18:47:11;101624.98;;;31.36